createdAt,value
2022-11-28T00:00:22.432Z,91.43
2022-11-28T00:03:09.869Z,70.80
2022-11-28T00:05:36.942Z,46.97
2022-11-28T00:08:04.814Z,52.58
2022-11-28T00:10:33.103Z,102.50
2022-11-28T00:13:00.543Z,78.45
2022-11-28T00:15:27.539Z,37.40
2022-11-28T00:17:54.745Z,55.88
2022-11-28T00:20:21.677Z,51.85
2022-11-28T00:22:48.783Z,62.38
2022-11-28T00:25:15.890Z,25.13
2022-11-28T00:27:44.506Z,50.20
2022-11-28T00:30:12.216Z,41.95
2022-11-28T00:32:39.582Z,39.70
2022-11-28T00:35:06.956Z,50.72
2022-11-28T00:37:34.233Z,89.45
2022-11-28T00:40:01.131Z,95.75
2022-11-28T00:42:28.710Z,31.30
2022-11-28T00:44:56.939Z,31.00
2022-11-28T00:47:24.031Z,27.85
2022-11-28T00:49:51.868Z,85.57
2022-11-28T00:52:19.273Z,44.22
2022-11-28T00:54:46.411Z,116.85
2022-11-28T00:57:13.656Z,37.33
2022-11-28T00:59:40.682Z,34.50
2022-11-28T01:02:09.353Z,43.33
2022-11-28T01:04:36.359Z,51.17
2022-11-28T01:07:03.535Z,42.15
2022-11-28T01:09:30.601Z,48.75
2022-11-28T01:11:57.818Z,41.95
2022-11-28T01:14:25.979Z,51.60
2022-11-28T01:16:53.288Z,29.63
2022-11-28T01:19:21.755Z,49.65
2022-11-28T01:21:49.308Z,80.78
2022-11-28T01:24:17.200Z,68.05
2022-11-28T01:26:44.708Z,62.83
2022-11-28T01:29:11.776Z,27.60
2022-11-28T01:31:39.793Z,30.67
2022-11-28T01:34:06.911Z,32.47
2022-11-28T01:36:35.583Z,38.95
2022-11-28T01:39:02.512Z,49.45
2022-11-28T01:41:30.083Z,51.10
2022-11-28T01:43:59.163Z,76.82
2022-11-28T01:46:26.648Z,28.75
2022-11-28T01:48:56.628Z,29.15
2022-11-28T01:51:24.466Z,78.78
2022-11-28T01:53:53.532Z,133.75
2022-11-28T01:56:25.197Z,41.90
2022-11-28T01:58:57.731Z,48.20
2022-11-28T02:01:25.812Z,58.58
2022-11-28T02:03:54.325Z,110.25
2022-11-28T02:06:24.422Z,98.95
2022-11-28T02:08:53.438Z,109.25
2022-11-28T02:11:49.847Z,123.97
2022-11-28T02:14:33.396Z,69.05
2022-11-28T02:17:13.327Z,73.57
2022-11-28T02:20:24.712Z,97.47
2022-11-28T02:22:59.319Z,54.78
2022-11-28T02:26:02.705Z,35.40
2022-11-28T02:29:03.339Z,32.17
2022-11-28T02:32:06.857Z,31.00
2022-11-28T02:34:47.263Z,85.55
2022-11-28T02:37:26.125Z,35.90
2022-11-28T02:40:03.323Z,49.13
2022-11-28T02:42:40.322Z,49.30
2022-11-28T02:45:13.703Z,61.70
2022-11-28T02:47:45.932Z,40.03
2022-11-28T02:50:16.085Z,53.28
2022-11-28T02:52:47.403Z,51.00
2022-11-28T02:55:15.523Z,30.52
2022-11-28T02:57:47.895Z,43.58
2022-11-28T03:00:28.029Z,74.97
2022-11-28T03:03:15.949Z,66.30
2022-11-28T03:05:49.010Z,22.90
2022-11-28T03:08:33.692Z,95.10
2022-11-28T03:11:06.577Z,49.08
2022-11-28T03:13:41.979Z,43.15
2022-11-28T03:16:20.966Z,133.40
2022-11-28T03:19:00.095Z,153.63
2022-11-28T03:21:38.127Z,82.38
2022-11-28T03:24:10.378Z,139.73
2022-11-28T03:26:47.131Z,74.50
2022-11-28T03:29:20.826Z,72.85
2022-11-28T03:31:54.733Z,79.22
2022-11-28T03:34:29.313Z,58.33
2022-11-28T03:37:01.411Z,117.95
2022-11-28T03:39:31.986Z,35.88
2022-11-28T03:42:05.916Z,53.45
2022-11-28T03:44:40.567Z,33.05
2022-11-28T03:47:08.939Z,69.55
2022-11-28T03:49:40.351Z,11.45
2022-11-28T03:52:11.448Z,16.42
2022-11-28T03:54:47.661Z,33.58
2022-11-28T03:57:22.891Z,14.00
2022-11-28T03:59:52.416Z,26.42
2022-11-28T04:02:27.581Z,43.60
2022-11-28T04:05:02.244Z,12.68
2022-11-28T04:07:37.033Z,10.63
2022-11-28T04:10:09.258Z,10.77
2022-11-28T04:12:46.668Z,10.63
2022-11-28T04:15:17.653Z,24.42
2022-11-28T04:17:52.045Z,32.42
2022-11-28T04:20:28.685Z,8.80
2022-11-28T04:23:01.196Z,36.00
2022-11-28T04:25:32.591Z,28.90
2022-11-28T04:28:04.343Z,28.98
2022-11-28T04:30:32.302Z,21.17
2022-11-28T04:33:03.919Z,11.77
2022-11-28T04:35:37.610Z,22.65
2022-11-28T04:38:06.703Z,12.02
2022-11-28T04:40:38.859Z,26.25
2022-11-28T04:43:10.928Z,9.50
2022-11-28T04:45:44.392Z,9.93
2022-11-28T04:48:11.641Z,10.35
2022-11-28T04:50:46.909Z,13.60
2022-11-28T04:53:34.822Z,18.55
2022-11-28T04:56:07.525Z,9.82
2022-11-28T04:58:38.161Z,15.60
2022-11-28T05:01:10.283Z,11.13
2022-11-28T05:03:42.435Z,10.63
2022-11-28T05:06:23.999Z,15.82
2022-11-28T05:08:51.147Z,18.42
2022-11-28T05:11:18.648Z,15.88
2022-11-28T05:13:45.956Z,16.20
2022-11-28T05:16:17.571Z,51.20
2022-11-28T05:18:44.888Z,42.70
2022-11-28T05:21:13.623Z,22.83
2022-11-28T05:23:42.561Z,62.60
2022-11-28T05:28:37.609Z,18.63
2022-11-28T05:31:06.441Z,18.80
2022-11-28T05:33:33.546Z,30.88
2022-11-28T05:36:12.395Z,27.90
2022-11-28T05:38:41.591Z,40.08
2022-11-28T05:41:09.695Z,11.50
2022-11-28T05:43:36.914Z,29.58
2022-11-28T05:46:05.864Z,38.60
2022-11-28T05:48:32.895Z,67.22
2022-11-28T05:51:00.171Z,48.70
2022-11-28T05:53:27.398Z,56.13
2022-11-28T05:55:55.920Z,95.60
2022-11-28T05:58:22.990Z,24.85
2022-11-28T06:00:50.241Z,20.60
2022-11-28T06:03:17.177Z,65.90
2022-11-28T06:05:44.541Z,58.95
2022-11-28T06:08:12.813Z,63.40
2022-11-28T06:10:40.511Z,61.67
2022-11-28T06:13:09.176Z,88.18
2022-11-28T06:15:38.252Z,65.97
2022-11-28T06:18:05.407Z,79.95
2022-11-28T06:20:35.313Z,24.27
2022-11-28T06:23:04.955Z,53.67
2022-11-28T06:25:32.275Z,58.33
2022-11-28T06:27:59.216Z,49.75
2022-11-28T06:30:27.704Z,15.65
2022-11-28T06:32:54.628Z,58.97
2022-11-28T06:35:21.981Z,36.47
2022-11-28T06:37:48.916Z,79.15
2022-11-28T06:40:16.560Z,18.63
2022-11-28T06:42:43.479Z,45.03
2022-11-28T06:45:11.541Z,50.60
2022-11-28T06:47:39.864Z,33.45
2022-11-28T06:50:09.760Z,35.17
2022-11-28T06:52:36.774Z,36.88
2022-11-28T06:55:04.197Z,22.05
2022-11-28T06:57:32.740Z,22.73
2022-11-28T07:00:03.722Z,18.92
2022-11-28T07:02:30.710Z,17.25
2022-11-28T07:05:00.645Z,13.25
2022-11-28T07:07:27.668Z,17.42
2022-11-28T07:09:54.928Z,6.43
2022-11-28T07:12:21.915Z,26.10
2022-11-28T07:14:49.143Z,41.10
2022-11-28T07:17:16.151Z,29.55
2022-11-28T07:19:43.682Z,12.15
2022-11-28T07:22:12.243Z,12.35
2022-11-28T07:24:44.607Z,11.20
2022-11-28T07:27:11.583Z,9.23
2022-11-28T07:29:38.792Z,31.70
2022-11-28T07:32:10.737Z,28.92
2022-11-28T07:34:38.350Z,36.75
2022-11-28T07:37:05.250Z,48.33
2022-11-28T07:39:34.337Z,17.98
2022-11-28T07:42:01.126Z,21.67
2022-11-28T07:44:28.652Z,48.90
2022-11-28T07:46:56.073Z,10.23
2022-11-28T07:49:23.293Z,13.07
2022-11-28T07:51:50.312Z,30.85
2022-11-28T07:54:17.552Z,17.50
2022-11-28T07:59:33.318Z,12.52
2022-11-28T08:02:00.237Z,17.17
2022-11-28T08:04:27.814Z,18.85
2022-11-28T08:06:55.432Z,18.77
2022-11-28T08:09:23.067Z,18.60
2022-11-28T08:11:52.576Z,25.58
2022-11-28T08:14:20.334Z,15.07
2022-11-28T08:16:47.440Z,27.17
2022-11-28T08:19:14.635Z,15.60
2022-11-28T08:21:42.035Z,18.70
2022-11-28T08:24:10.592Z,14.75
2022-11-28T08:26:38.318Z,16.60
2022-11-28T08:29:06.935Z,24.80
2022-11-28T08:31:35.403Z,13.97
2022-11-28T08:34:05.884Z,13.60
2022-11-28T08:36:33.088Z,15.10
2022-11-28T08:39:24.111Z,14.93
2022-11-28T08:41:50.442Z,15.85
2022-11-28T08:44:19.269Z,16.33
2022-11-28T08:46:46.252Z,16.85
2022-11-28T08:49:14.597Z,17.33
2022-11-28T08:51:41.480Z,19.80
2022-11-28T08:54:09.131Z,12.45
2022-11-28T08:56:36.137Z,15.00
2022-11-28T08:59:04.168Z,15.65
2022-11-28T09:01:32.731Z,19.98
2022-11-28T09:04:00.761Z,17.38
2022-11-28T09:06:27.906Z,15.57
2022-11-28T09:08:55.166Z,16.15
2022-11-28T09:11:23.024Z,14.38
2022-11-28T09:13:50.664Z,15.97
2022-11-28T09:16:18.066Z,15.25
2022-11-28T09:18:46.811Z,15.88
2022-11-28T09:21:15.405Z,14.70
2022-11-28T09:23:44.259Z,16.10
2022-11-28T09:26:12.614Z,18.45
2022-11-28T09:28:40.718Z,15.13
2022-11-28T09:31:08.492Z,25.02
2022-11-28T09:33:36.135Z,20.58
2022-11-28T09:36:10.354Z,21.05
2022-11-28T09:38:38.021Z,20.13
2022-11-28T09:41:31.121Z,25.35
2022-11-28T09:44:03.141Z,20.08
2022-11-28T09:46:34.382Z,17.67
2022-11-28T09:49:09.337Z,18.80
2022-11-28T09:51:48.545Z,18.25
2022-11-28T09:54:22.577Z,15.20
2022-11-28T09:56:50.721Z,21.73
2022-11-28T09:59:23.381Z,22.52
2022-11-28T10:01:56.750Z,18.70
2022-11-28T10:04:33.433Z,18.48
2022-11-28T10:07:11.034Z,18.40
2022-11-28T10:09:51.759Z,16.77
2022-11-28T10:12:30.777Z,34.42
2022-11-28T10:15:09.365Z,19.20
2022-11-28T10:17:44.755Z,15.80
2022-11-28T10:20:17.895Z,22.85
2022-11-28T10:22:50.769Z,29.50
2022-11-28T10:25:22.806Z,17.00
2022-11-28T10:27:51.187Z,20.27
2022-11-28T10:30:22.910Z,16.88
2022-11-28T10:32:57.165Z,16.90
2022-11-28T10:35:30.850Z,22.30
2022-11-28T10:37:59.251Z,26.52
2022-11-28T10:40:39.912Z,32.80
2022-11-28T10:43:17.458Z,17.75
2022-11-28T10:45:51.135Z,17.05
2022-11-28T10:48:39.544Z,22.58
2022-11-28T10:51:22.073Z,16.05
2022-11-28T10:54:06.892Z,30.52
2022-11-28T10:56:43.029Z,20.40
2022-11-28T10:59:22.904Z,14.15
2022-11-28T11:01:52.223Z,19.10
2022-11-28T11:04:22.675Z,18.42
2022-11-28T11:07:15.045Z,19.55
2022-11-28T11:09:46.601Z,21.48
2022-11-28T11:12:20.640Z,30.33
2022-11-28T11:14:50.004Z,17.80
2022-11-28T11:17:28.958Z,21.48
2022-11-28T11:19:58.341Z,16.00
2022-11-28T11:22:29.140Z,21.80
2022-11-28T11:25:17.471Z,15.93
2022-11-28T11:27:49.628Z,17.50
2022-11-28T11:30:22.600Z,18.23
2022-11-28T11:32:51.748Z,19.63
2022-11-28T11:35:23.810Z,17.42
2022-11-28T11:37:51.920Z,15.23
2022-11-28T11:40:26.346Z,17.50
2022-11-28T11:42:55.792Z,18.52
2022-11-28T11:45:31.437Z,16.92
2022-11-28T11:47:58.976Z,16.25
2022-11-28T11:50:29.868Z,18.33
2022-11-28T11:53:02.724Z,15.93
2022-11-28T11:55:33.893Z,16.80
2022-11-28T11:58:06.076Z,17.88
2022-11-28T12:00:37.743Z,13.45
2022-11-28T12:03:12.350Z,17.08
2022-11-28T12:06:13.394Z,17.73
2022-11-28T12:08:43.076Z,16.77
2022-11-28T12:11:18.004Z,16.17
2022-11-28T12:13:45.817Z,19.75
2022-11-28T12:16:34.977Z,16.45
2022-11-28T12:19:14.666Z,23.92
2022-11-28T12:21:55.062Z,16.60
2022-11-28T12:24:30.421Z,15.50
2022-11-28T12:27:06.766Z,13.70
2022-11-28T12:29:49.067Z,14.70
2022-11-28T12:32:28.407Z,15.93
2022-11-28T12:35:11.282Z,17.38
2022-11-28T12:40:48.612Z,18.65
2022-11-28T12:43:30.555Z,18.35
2022-11-28T12:46:06.797Z,25.05
2022-11-28T12:48:53.573Z,19.65
2022-11-28T12:51:36.666Z,26.38
2022-11-28T12:54:22.020Z,27.08
2022-11-28T12:56:58.774Z,24.85
2022-11-28T12:59:36.889Z,25.35
2022-11-28T13:02:29.880Z,23.23
2022-11-28T13:05:12.065Z,20.00
2022-11-28T13:07:48.131Z,23.63
2022-11-28T13:10:23.325Z,28.20
2022-11-28T13:12:58.539Z,21.23
2022-11-28T13:15:44.391Z,24.67
2022-11-28T13:18:24.322Z,23.83
2022-11-28T13:20:55.829Z,23.33
2022-11-28T13:23:29.538Z,21.05
2022-11-28T13:26:05.633Z,20.08
2022-11-28T13:28:39.757Z,18.85
2022-11-28T13:31:22.710Z,27.45
2022-11-28T13:33:53.531Z,23.45
2022-11-28T13:39:30.945Z,28.23
2022-11-28T13:45:00.496Z,18.77
2022-11-28T13:47:31.894Z,20.38
2022-11-28T13:50:36.308Z,20.17
2022-11-28T13:53:20.152Z,20.85
2022-11-28T13:55:48.787Z,22.80
2022-11-28T13:58:25.994Z,19.48
2022-11-28T14:01:03.460Z,19.02
2022-11-28T14:03:34.490Z,31.52
2022-11-28T14:06:04.400Z,26.60
2022-11-28T14:08:34.885Z,29.70
2022-11-28T14:11:25.796Z,25.95
2022-11-28T14:14:08.929Z,29.38
2022-11-28T14:16:52.126Z,25.02
2022-11-28T14:19:32.297Z,23.42
2022-11-28T14:22:14.518Z,27.20
2022-11-28T14:24:54.399Z,25.55
2022-11-28T14:27:25.244Z,24.35
2022-11-28T14:29:54.879Z,29.63
2022-11-28T14:32:33.297Z,26.70
2022-11-28T14:35:02.912Z,25.05
2022-11-28T14:37:53.132Z,26.30
2022-11-28T14:41:05.747Z,34.88
2022-11-28T14:43:35.723Z,31.52
2022-11-28T14:46:33.231Z,30.35
2022-11-28T14:49:19.244Z,43.00
2022-11-28T14:52:30.692Z,42.17
2022-11-28T14:57:27.990Z,34.97
2022-11-28T14:59:57.879Z,26.92
2022-11-28T15:02:48.311Z,30.10
2022-11-28T15:05:29.833Z,31.10
2022-11-28T15:08:16.331Z,23.75
2022-11-28T15:10:50.729Z,30.77
2022-11-28T15:13:38.943Z,23.75
2022-11-28T15:16:11.891Z,22.83
2022-11-28T15:18:43.346Z,23.08
2022-11-28T15:21:16.385Z,23.73
2022-11-28T15:23:46.828Z,20.05
2022-11-28T15:26:19.984Z,24.45
2022-11-28T15:28:46.964Z,33.45
2022-11-28T15:31:21.703Z,29.73
2022-11-28T15:33:50.147Z,23.83
2022-11-28T15:36:26.174Z,31.23
2022-11-28T15:38:55.198Z,34.03
2022-11-28T15:41:24.240Z,30.80
2022-11-28T15:43:52.312Z,37.45
2022-11-28T15:46:26.002Z,41.75
2022-11-28T15:48:53.768Z,24.95
2022-11-28T15:51:29.614Z,27.85
2022-11-28T15:53:59.734Z,31.00
2022-11-28T15:56:27.011Z,25.13
2022-11-28T15:58:54.547Z,39.83
2022-11-28T16:01:23.730Z,28.52
2022-11-28T16:06:23.654Z,32.63
2022-11-28T16:08:54.425Z,35.47
2022-11-28T16:11:25.339Z,32.25
2022-11-28T16:13:54.120Z,30.67
2022-11-28T16:16:25.650Z,32.45
2022-11-28T16:18:57.010Z,27.88
2022-11-28T16:21:28.560Z,30.08
2022-11-28T16:24:00.767Z,29.38
2022-11-28T16:26:35.022Z,34.88
2022-11-28T16:29:11.853Z,36.38
2022-11-28T16:31:39.834Z,34.22
2022-11-28T16:34:12.483Z,38.38
2022-11-28T16:36:40.069Z,32.97
2022-11-28T16:39:14.540Z,32.17
2022-11-28T16:41:50.144Z,31.85
2022-11-28T16:44:22.116Z,34.70
2022-11-28T16:46:51.800Z,27.38
2022-11-28T16:49:34.994Z,30.65
2022-11-28T16:52:49.551Z,28.50
2022-11-28T16:55:44.701Z,28.40
2022-11-28T16:58:16.558Z,29.67
2022-11-28T17:00:47.831Z,31.23
2022-11-28T17:03:44.916Z,39.03
2022-11-28T17:06:16.675Z,31.55
2022-11-28T17:08:44.076Z,30.77
2022-11-28T17:11:14.267Z,34.45
2022-11-28T17:13:42.937Z,37.50
2022-11-28T17:16:21.356Z,40.55
2022-11-28T17:18:48.979Z,34.90
2022-11-28T17:21:18.606Z,38.88
2022-11-28T17:23:46.219Z,37.97
2022-11-28T17:26:13.146Z,43.45
2022-11-28T17:28:40.475Z,40.83
2022-11-28T17:31:11.252Z,39.90
2022-11-28T17:33:43.226Z,35.38
2022-11-28T17:36:13.457Z,39.85
2022-11-28T17:38:40.860Z,42.35
2022-11-28T17:41:12.944Z,40.22
2022-11-28T17:43:40.881Z,39.78
2022-11-28T17:46:11.721Z,39.17
2022-11-28T17:48:39.108Z,41.97
2022-11-28T17:51:08.766Z,59.72
2022-11-28T17:53:40.391Z,45.83
2022-11-28T17:56:10.607Z,43.75
2022-11-28T17:58:38.412Z,42.70
2022-11-28T18:01:11.423Z,46.50
2022-11-28T18:03:39.938Z,43.83
2022-11-28T18:06:14.095Z,44.08
2022-11-28T18:08:41.303Z,42.10
2022-11-28T18:11:11.123Z,50.97
2022-11-28T18:13:38.608Z,43.78
2022-11-28T18:16:06.303Z,79.28
2022-11-28T18:18:35.052Z,33.60
2022-11-28T18:21:02.079Z,51.50
2022-11-28T18:23:29.389Z,70.38
2022-11-28T18:25:56.651Z,41.92
2022-11-28T18:28:24.678Z,43.03
2022-11-28T18:30:51.793Z,46.25
2022-11-28T18:33:19.027Z,55.63
2022-11-28T18:35:47.640Z,51.65
2022-11-28T18:38:14.898Z,79.05
2022-11-28T18:40:41.784Z,60.80
2022-11-28T18:43:10.380Z,56.78
2022-11-28T18:45:37.359Z,55.55
2022-11-28T18:48:04.913Z,69.05
2022-11-28T18:50:32.206Z,44.55
2022-11-28T18:53:00.908Z,45.58
2022-11-28T18:55:27.866Z,57.85
2022-11-28T18:57:55.147Z,43.30
2022-11-28T19:00:23.316Z,47.75
2022-11-28T19:02:52.125Z,69.45
2022-11-28T19:05:19.218Z,56.70
2022-11-28T19:07:46.432Z,53.55
2022-11-28T19:10:14.912Z,38.72
2022-11-28T19:12:42.223Z,41.20
2022-11-28T19:15:11.730Z,42.45
2022-11-28T19:17:39.118Z,37.47
2022-11-28T19:20:07.311Z,36.72
2022-11-28T19:22:35.669Z,40.30
2022-11-28T19:25:02.719Z,44.35
2022-11-28T19:27:31.404Z,40.80
2022-11-28T19:29:58.319Z,47.55
2022-11-28T19:32:27.685Z,40.45
2022-11-28T19:34:54.784Z,43.38
2022-11-28T19:37:22.207Z,40.70
2022-11-28T19:39:49.096Z,38.60
2022-11-28T19:42:16.390Z,36.83
2022-11-28T19:44:44.672Z,42.55
2022-11-28T19:47:11.916Z,41.10
2022-11-28T19:49:39.000Z,46.42
2022-11-28T19:52:06.255Z,43.17
2022-11-28T19:54:34.776Z,39.92
2022-11-28T19:57:02.022Z,38.60
2022-11-28T19:59:30.448Z,37.35
2022-11-28T20:01:59.051Z,50.17
2022-11-28T20:04:26.403Z,39.28
2022-11-28T20:06:53.651Z,40.58
2022-11-28T20:09:20.569Z,43.38
2022-11-28T20:11:47.715Z,41.15
2022-11-28T20:14:16.857Z,38.65
2022-11-28T20:16:44.687Z,42.28
2022-11-28T20:19:14.812Z,45.97
2022-11-28T20:21:42.239Z,40.17
2022-11-28T20:24:10.314Z,39.17
2022-11-28T20:26:39.982Z,43.63
2022-11-28T20:29:07.969Z,42.70
2022-11-28T20:31:36.988Z,39.42
2022-11-28T20:34:04.578Z,40.05
2022-11-28T20:36:34.116Z,41.95
2022-11-28T20:39:03.755Z,41.72
2022-11-28T20:41:31.322Z,44.75
2022-11-28T20:43:59.863Z,42.28
2022-11-28T20:46:30.184Z,39.92
2022-11-28T20:48:59.044Z,46.17
2022-11-28T20:51:28.491Z,48.55
2022-11-28T20:58:55.315Z,38.80
2022-11-28T21:01:24.809Z,54.83
2022-11-28T21:03:52.767Z,81.20
2022-11-28T21:06:20.477Z,79.28
2022-11-28T21:08:47.888Z,82.32
2022-11-28T21:11:43.531Z,72.22
2022-11-28T21:14:06.567Z,54.08
2022-11-28T21:16:35.127Z,70.82
2022-11-28T21:19:05.222Z,52.92
2022-11-28T21:21:33.617Z,55.05
2022-11-28T21:24:03.434Z,51.50
2022-11-28T21:26:37.635Z,45.55
2022-11-28T21:29:09.283Z,44.80
2022-11-28T21:31:39.577Z,47.78
2022-11-28T21:34:06.591Z,51.75
2022-11-28T21:36:33.743Z,45.17
2022-11-28T21:39:01.752Z,45.65
2022-11-28T21:41:31.161Z,47.55
2022-11-28T21:46:27.938Z,41.95
2022-11-28T21:48:55.042Z,50.38
2022-11-28T21:51:25.675Z,51.75
2022-11-28T21:53:58.983Z,46.75
2022-11-28T21:56:26.666Z,53.00
2022-11-28T21:58:54.002Z,49.47
2022-11-28T22:01:22.608Z,46.17
2022-11-28T22:03:49.676Z,46.60
2022-11-28T22:06:20.047Z,47.53
2022-11-28T22:08:48.563Z,47.42
2022-11-28T22:11:16.160Z,47.67
2022-11-28T22:13:45.223Z,49.33
2022-11-28T22:16:16.044Z,52.60
2022-11-28T22:18:45.661Z,57.25
2022-11-28T22:21:49.892Z,55.65
2022-11-28T22:24:02.581Z,53.65
2022-11-28T22:26:29.726Z,53.20
2022-11-28T22:28:58.634Z,64.65
2022-11-28T22:31:25.972Z,55.58
2022-11-28T22:33:54.365Z,55.78
2022-11-28T22:36:21.887Z,59.03
2022-11-28T22:38:53.575Z,55.03
2022-11-28T22:41:28.496Z,54.45
2022-11-28T22:43:57.107Z,49.03
2022-11-28T22:46:24.458Z,55.65
2022-11-28T22:48:52.045Z,54.50
2022-11-28T22:51:21.952Z,55.47
2022-11-28T22:53:52.796Z,59.75
2022-11-28T22:56:19.971Z,55.65
2022-11-28T22:58:46.852Z,55.38
2022-11-28T23:01:15.747Z,56.40
2022-11-28T23:03:44.231Z,54.95
2022-11-28T23:06:13.300Z,51.25
2022-11-28T23:08:42.233Z,56.92
2022-11-28T23:11:12.496Z,53.63
2022-11-28T23:13:39.910Z,49.53
2022-11-28T23:16:15.327Z,51.08
2022-11-28T23:18:43.205Z,44.63
2022-11-28T23:21:16.044Z,46.30
2022-11-28T23:23:45.831Z,48.53
2022-11-28T23:26:14.838Z,52.90
2022-11-28T23:28:42.276Z,51.78
2022-11-28T23:31:13.116Z,61.63
2022-11-28T23:33:40.485Z,49.38
2022-11-28T23:36:13.402Z,52.80
2022-11-28T23:38:40.342Z,47.25
2022-11-28T23:41:09.127Z,42.67
2022-11-28T23:43:36.013Z,38.08
2022-11-28T23:46:03.811Z,44.05
2022-11-28T23:48:31.022Z,31.25
2022-11-28T23:50:58.263Z,36.95
2022-11-28T23:53:25.401Z,27.92
2022-11-28T23:55:52.508Z,42.85
2022-11-28T23:58:20.975Z,40.67
